Terminal Aerodrome Forecast
Issued by NWS Pocatello, ID

Home | Current Version | Previous Version | Text Only | Print | Product List | Glossary On
Versions: 1 2 3 4 5 6 7 8 9 10 11 12 13 14 15 16 17 18 19 20 21 22 23 24 25
127
FTUS45 KPIH 222320
TAFIDA
TAF
KIDA 222320Z 2300/2324 21009KT P6SM VCSH OVC040
     FM230300 20007KT P6SM FEW030 BKN070
     FM231800 VRB06KT P6SM SCT070=

USA.gov is the U.S. government's official web portal to all federal, state and local government web resources and services.